sensor_id;sensor_type;location;lat;lon;timestamp;P1;durP1;ratioP1;P2;durP2;ratioP2
72895;SDS011;61036;53.224;6.554;2022-08-18T00:01:48;11.83;;;6.20;;
72895;SDS011;61036;53.224;6.554;2022-08-18T00:04:18;11.53;;;6.60;;
72895;SDS011;61036;53.224;6.554;2022-08-18T00:06:44;11.03;;;6.33;;
72895;SDS011;61036;53.224;6.554;2022-08-18T00:09:10;10.73;;;6.10;;
72895;SDS011;61036;53.224;6.554;2022-08-18T00:11:41;13.67;;;6.90;;
72895;SDS011;61036;53.224;6.554;2022-08-18T00:14:11;14.10;;;7.30;;
72895;SDS011;61036;53.224;6.554;2022-08-18T00:16:39;11.17;;;6.50;;
72895;SDS011;61036;53.224;6.554;2022-08-18T00:19:06;11.23;;;6.63;;
72895;SDS011;61036;53.224;6.554;2022-08-18T00:21:32;13.27;;;7.13;;
72895;SDS011;61036;53.224;6.554;2022-08-18T00:23:58;9.27;;;6.03;;
72895;SDS011;61036;53.224;6.554;2022-08-18T00:26:25;13.73;;;6.50;;
72895;SDS011;61036;53.224;6.554;2022-08-18T00:28:51;10.37;;;6.67;;
72895;SDS011;61036;53.224;6.554;2022-08-18T00:31:19;10.37;;;6.50;;
72895;SDS011;61036;53.224;6.554;2022-08-18T00:33:45;11.00;;;6.17;;
72895;SDS011;61036;53.224;6.554;2022-08-18T00:36:11;10.13;;;6.60;;
72895;SDS011;61036;53.224;6.554;2022-08-18T00:38:38;10.80;;;6.80;;
72895;SDS011;61036;53.224;6.554;2022-08-18T00:41:05;10.27;;;6.83;;
72895;SDS011;61036;53.224;6.554;2022-08-18T00:43:36;10.20;;;7.40;;
72895;SDS011;61036;53.224;6.554;2022-08-18T00:46:08;9.90;;;6.40;;
72895;SDS011;61036;53.224;6.554;2022-08-18T00:48:41;10.67;;;7.40;;
72895;SDS011;61036;53.224;6.554;2022-08-18T00:51:09;8.67;;;6.77;;
72895;SDS011;61036;53.224;6.554;2022-08-18T00:53:46;11.47;;;7.03;;
72895;SDS011;61036;53.224;6.554;2022-08-18T00:56:22;9.97;;;6.20;;
72895;SDS011;61036;53.224;6.554;2022-08-18T00:59:00;11.13;;;6.57;;
72895;SDS011;61036;53.224;6.554;2022-08-18T01:01:32;9.87;;;6.67;;
72895;SDS011;61036;53.224;6.554;2022-08-18T01:04:02;12.10;;;6.77;;
72895;SDS011;61036;53.224;6.554;2022-08-18T01:06:41;10.80;;;7.23;;
72895;SDS011;61036;53.224;6.554;2022-08-18T01:09:15;11.43;;;6.87;;
72895;SDS011;61036;53.224;6.554;2022-08-18T01:11:42;10.63;;;6.80;;
72895;SDS011;61036;53.224;6.554;2022-08-18T01:14:08;12.90;;;6.70;;
72895;SDS011;61036;53.224;6.554;2022-08-18T01:16:35;13.00;;;6.83;;
72895;SDS011;61036;53.224;6.554;2022-08-18T01:19:20;13.43;;;7.20;;
72895;SDS011;61036;53.224;6.554;2022-08-18T01:22:10;10.73;;;7.00;;
72895;SDS011;61036;53.224;6.554;2022-08-18T01:24:51;12.83;;;7.33;;
72895;SDS011;61036;53.224;6.554;2022-08-18T01:27:40;14.00;;;8.30;;
72895;SDS011;61036;53.224;6.554;2022-08-18T01:30:12;13.43;;;7.23;;
72895;SDS011;61036;53.224;6.554;2022-08-18T01:32:40;14.60;;;7.23;;
72895;SDS011;61036;53.224;6.554;2022-08-18T01:35:08;15.63;;;7.80;;
72895;SDS011;61036;53.224;6.554;2022-08-18T01:37:35;15.20;;;7.30;;
72895;SDS011;61036;53.224;6.554;2022-08-18T01:40:02;10.77;;;6.93;;
72895;SDS011;61036;53.224;6.554;2022-08-18T01:42:31;13.10;;;6.97;;
72895;SDS011;61036;53.224;6.554;2022-08-18T01:44:57;15.90;;;7.93;;
72895;SDS011;61036;53.224;6.554;2022-08-18T01:47:23;11.63;;;7.43;;
72895;SDS011;61036;53.224;6.554;2022-08-18T01:49:49;16.23;;;7.90;;
72895;SDS011;61036;53.224;6.554;2022-08-18T01:52:16;12.80;;;7.80;;
72895;SDS011;61036;53.224;6.554;2022-08-18T01:54:44;14.43;;;7.50;;
72895;SDS011;61036;53.224;6.554;2022-08-18T01:57:14;12.50;;;7.87;;
72895;SDS011;61036;53.224;6.554;2022-08-18T01:59:41;12.97;;;8.63;;
72895;SDS011;61036;53.224;6.554;2022-08-18T02:02:07;14.57;;;8.03;;
72895;SDS011;61036;53.224;6.554;2022-08-18T02:04:37;14.93;;;8.97;;
72895;SDS011;61036;53.224;6.554;2022-08-18T02:07:06;13.03;;;7.67;;
72895;SDS011;61036;53.224;6.554;2022-08-18T02:09:34;14.77;;;8.30;;
72895;SDS011;61036;53.224;6.554;2022-08-18T02:12:02;14.53;;;8.40;;
72895;SDS011;61036;53.224;6.554;2022-08-18T02:14:33;15.20;;;8.37;;
72895;SDS011;61036;53.224;6.554;2022-08-18T02:17:00;12.07;;;7.40;;
72895;SDS011;61036;53.224;6.554;2022-08-18T02:19:32;13.70;;;7.90;;
72895;SDS011;61036;53.224;6.554;2022-08-18T02:22:03;14.17;;;7.83;;
72895;SDS011;61036;53.224;6.554;2022-08-18T02:24:29;13.13;;;8.17;;
72895;SDS011;61036;53.224;6.554;2022-08-18T02:26:57;13.97;;;7.77;;
72895;SDS011;61036;53.224;6.554;2022-08-18T02:29:23;13.33;;;7.53;;
72895;SDS011;61036;53.224;6.554;2022-08-18T02:31:49;17.20;;;7.43;;
72895;SDS011;61036;53.224;6.554;2022-08-18T02:34:15;13.70;;;7.60;;
72895;SDS011;61036;53.224;6.554;2022-08-18T02:36:42;14.23;;;7.37;;
72895;SDS011;61036;53.224;6.554;2022-08-18T02:39:08;14.03;;;7.00;;
72895;SDS011;61036;53.224;6.554;2022-08-18T02:41:34;12.50;;;7.47;;
72895;SDS011;61036;53.224;6.554;2022-08-18T02:44:01;12.10;;;7.20;;
72895;SDS011;61036;53.224;6.554;2022-08-18T02:46:29;11.27;;;6.83;;
72895;SDS011;61036;53.224;6.554;2022-08-18T02:49:00;13.80;;;7.17;;
72895;SDS011;61036;53.224;6.554;2022-08-18T02:51:27;10.73;;;7.40;;
72895;SDS011;61036;53.224;6.554;2022-08-18T02:53:52;12.73;;;7.23;;
72895;SDS011;61036;53.224;6.554;2022-08-18T02:56:20;14.13;;;7.20;;
72895;SDS011;61036;53.224;6.554;2022-08-18T02:59:04;17.10;;;7.43;;
72895;SDS011;61036;53.224;6.554;2022-08-18T03:01:34;11.27;;;7.00;;
72895;SDS011;61036;53.224;6.554;2022-08-18T03:04:05;10.77;;;7.30;;
72895;SDS011;61036;53.224;6.554;2022-08-18T03:06:33;11.80;;;6.77;;
72895;SDS011;61036;53.224;6.554;2022-08-18T03:09:00;14.43;;;7.07;;
72895;SDS011;61036;53.224;6.554;2022-08-18T03:11:29;10.87;;;6.90;;
72895;SDS011;61036;53.224;6.554;2022-08-18T03:13:55;9.67;;;6.90;;
72895;SDS011;61036;53.224;6.554;2022-08-18T03:16:22;12.67;;;7.57;;
72895;SDS011;61036;53.224;6.554;2022-08-18T03:19:00;10.63;;;6.93;;
72895;SDS011;61036;53.224;6.554;2022-08-18T03:21:26;11.37;;;7.80;;
72895;SDS011;61036;53.224;6.554;2022-08-18T03:23:56;16.93;;;7.53;;
72895;SDS011;61036;53.224;6.554;2022-08-18T03:26:23;11.57;;;7.10;;
72895;SDS011;61036;53.224;6.554;2022-08-18T03:28:50;12.70;;;6.77;;
72895;SDS011;61036;53.224;6.554;2022-08-18T03:31:18;10.00;;;7.50;;
72895;SDS011;61036;53.224;6.554;2022-08-18T03:33:45;12.47;;;7.40;;
72895;SDS011;61036;53.224;6.554;2022-08-18T03:36:13;12.30;;;8.13;;
72895;SDS011;61036;53.224;6.554;2022-08-18T03:38:44;15.03;;;7.70;;
72895;SDS011;61036;53.224;6.554;2022-08-18T03:41:11;12.93;;;7.13;;
72895;SDS011;61036;53.224;6.554;2022-08-18T03:43:39;14.03;;;6.83;;
72895;SDS011;61036;53.224;6.554;2022-08-18T03:46:06;12.97;;;7.30;;
72895;SDS011;61036;53.224;6.554;2022-08-18T03:48:34;12.13;;;7.30;;
72895;SDS011;61036;53.224;6.554;2022-08-18T03:51:02;11.73;;;7.70;;
72895;SDS011;61036;53.224;6.554;2022-08-18T03:53:37;10.47;;;7.07;;
72895;SDS011;61036;53.224;6.554;2022-08-18T03:56:07;13.90;;;7.43;;
72895;SDS011;61036;53.224;6.554;2022-08-18T03:58:40;12.67;;;7.10;;
72895;SDS011;61036;53.224;6.554;2022-08-18T04:01:11;9.17;;;7.00;;
72895;SDS011;61036;53.224;6.554;2022-08-18T04:03:41;10.00;;;7.43;;
72895;SDS011;61036;53.224;6.554;2022-08-18T04:06:14;11.63;;;7.73;;
72895;SDS011;61036;53.224;6.554;2022-08-18T04:08:41;8.10;;;6.50;;
72895;SDS011;61036;53.224;6.554;2022-08-18T04:11:08;9.53;;;6.63;;
72895;SDS011;61036;53.224;6.554;2022-08-18T04:13:38;11.63;;;7.13;;
72895;SDS011;61036;53.224;6.554;2022-08-18T04:16:04;11.00;;;7.20;;
72895;SDS011;61036;53.224;6.554;2022-08-18T04:18:30;14.33;;;8.03;;
72895;SDS011;61036;53.224;6.554;2022-08-18T04:21:00;10.67;;;7.07;;
72895;SDS011;61036;53.224;6.554;2022-08-18T04:23:38;11.17;;;6.73;;
72895;SDS011;61036;53.224;6.554;2022-08-18T04:26:06;9.13;;;6.97;;
72895;SDS011;61036;53.224;6.554;2022-08-18T04:28:33;12.73;;;7.53;;
72895;SDS011;61036;53.224;6.554;2022-08-18T04:31:04;10.77;;;7.00;;
72895;SDS011;61036;53.224;6.554;2022-08-18T04:33:36;11.80;;;7.90;;
72895;SDS011;61036;53.224;6.554;2022-08-18T04:36:10;9.57;;;7.20;;
72895;SDS011;61036;53.224;6.554;2022-08-18T04:38:39;10.10;;;7.37;;
72895;SDS011;61036;53.224;6.554;2022-08-18T04:41:10;11.20;;;7.20;;
72895;SDS011;61036;53.224;6.554;2022-08-18T04:43:37;10.57;;;6.97;;
72895;SDS011;61036;53.224;6.554;2022-08-18T04:46:04;9.93;;;6.40;;
72895;SDS011;61036;53.224;6.554;2022-08-18T04:48:37;9.77;;;6.67;;
72895;SDS011;61036;53.224;6.554;2022-08-18T04:51:06;8.33;;;7.43;;
72895;SDS011;61036;53.224;6.554;2022-08-18T04:53:34;10.33;;;7.07;;
72895;SDS011;61036;53.224;6.554;2022-08-18T04:56:30;10.63;;;6.73;;
72895;SDS011;61036;53.224;6.554;2022-08-18T04:59:05;10.37;;;6.90;;
72895;SDS011;61036;53.224;6.554;2022-08-18T05:01:34;13.10;;;8.50;;
72895;SDS011;61036;53.224;6.554;2022-08-18T05:04:05;12.80;;;7.80;;
72895;SDS011;61036;53.224;6.554;2022-08-18T05:06:34;13.80;;;8.40;;
72895;SDS011;61036;53.224;6.554;2022-08-18T05:09:04;9.27;;;7.00;;
72895;SDS011;61036;53.224;6.554;2022-08-18T05:11:32;9.60;;;6.90;;
72895;SDS011;61036;53.224;6.554;2022-08-18T05:14:00;10.80;;;7.80;;
72895;SDS011;61036;53.224;6.554;2022-08-18T05:16:28;10.70;;;7.50;;
72895;SDS011;61036;53.224;6.554;2022-08-18T05:19:04;10.77;;;7.77;;
72895;SDS011;61036;53.224;6.554;2022-08-18T05:21:32;11.30;;;8.10;;
72895;SDS011;61036;53.224;6.554;2022-08-18T05:24:01;10.93;;;8.00;;
72895;SDS011;61036;53.224;6.554;2022-08-18T05:26:27;11.10;;;8.30;;
72895;SDS011;61036;53.224;6.554;2022-08-18T05:28:56;10.63;;;8.40;;
72895;SDS011;61036;53.224;6.554;2022-08-18T05:31:23;9.57;;;8.00;;
72895;SDS011;61036;53.224;6.554;2022-08-18T05:33:52;11.30;;;8.03;;
72895;SDS011;61036;53.224;6.554;2022-08-18T05:41:43;10.73;;;8.27;;
72895;SDS011;61036;53.224;6.554;2022-08-18T05:44:17;11.50;;;8.13;;
72895;SDS011;61036;53.224;6.554;2022-08-18T05:46:53;12.67;;;7.37;;
72895;SDS011;61036;53.224;6.554;2022-08-18T05:49:30;10.87;;;7.03;;
72895;SDS011;61036;53.224;6.554;2022-08-18T05:52:04;11.83;;;7.30;;
72895;SDS011;61036;53.224;6.554;2022-08-18T05:54:37;9.00;;;6.53;;
72895;SDS011;61036;53.224;6.554;2022-08-18T05:57:26;11.93;;;6.77;;
72895;SDS011;61036;53.224;6.554;2022-08-18T05:59:54;12.50;;;6.73;;
72895;SDS011;61036;53.224;6.554;2022-08-18T06:02:32;9.90;;;6.50;;
72895;SDS011;61036;53.224;6.554;2022-08-18T06:05:10;12.13;;;5.87;;
72895;SDS011;61036;53.224;6.554;2022-08-18T06:07:42;10.17;;;5.93;;
72895;SDS011;61036;53.224;6.554;2022-08-18T06:10:13;10.83;;;6.53;;
72895;SDS011;61036;53.224;6.554;2022-08-18T06:13:16;12.27;;;6.47;;
72895;SDS011;61036;53.224;6.554;2022-08-18T06:15:45;10.27;;;6.43;;
72895;SDS011;61036;53.224;6.554;2022-08-18T06:18:39;11.80;;;6.70;;
72895;SDS011;61036;53.224;6.554;2022-08-18T06:26:43;12.10;;;6.07;;
72895;SDS011;61036;53.224;6.554;2022-08-18T06:40:34;10.07;;;4.73;;
72895;SDS011;61036;53.224;6.554;2022-08-18T06:43:02;9.50;;;4.40;;
72895;SDS011;61036;53.224;6.554;2022-08-18T06:45:32;9.97;;;4.20;;
72895;SDS011;61036;53.224;6.554;2022-08-18T06:48:06;9.70;;;3.90;;
72895;SDS011;61036;53.224;6.554;2022-08-18T06:50:49;10.83;;;4.50;;
72895;SDS011;61036;53.224;6.554;2022-08-18T06:53:20;10.80;;;4.47;;
72895;SDS011;61036;53.224;6.554;2022-08-18T06:55:48;11.73;;;3.63;;
72895;SDS011;61036;53.224;6.554;2022-08-18T07:01:05;8.87;;;3.30;;
72895;SDS011;61036;53.224;6.554;2022-08-18T07:03:40;9.77;;;3.77;;
72895;SDS011;61036;53.224;6.554;2022-08-18T07:08:47;7.93;;;3.77;;
72895;SDS011;61036;53.224;6.554;2022-08-18T07:13:51;9.53;;;3.77;;
72895;SDS011;61036;53.224;6.554;2022-08-18T07:18:54;7.60;;;3.87;;
72895;SDS011;61036;53.224;6.554;2022-08-18T07:21:34;7.60;;;3.33;;
72895;SDS011;61036;53.224;6.554;2022-08-18T07:26:32;10.27;;;4.27;;
72895;SDS011;61036;53.224;6.554;2022-08-18T07:29:22;9.80;;;3.67;;
72895;SDS011;61036;53.224;6.554;2022-08-18T07:31:48;9.97;;;4.07;;
72895;SDS011;61036;53.224;6.554;2022-08-18T07:34:20;9.10;;;4.10;;
72895;SDS011;61036;53.224;6.554;2022-08-18T07:37:06;8.63;;;3.63;;
72895;SDS011;61036;53.224;6.554;2022-08-18T07:39:42;8.57;;;3.70;;
72895;SDS011;61036;53.224;6.554;2022-08-18T07:42:28;6.87;;;3.63;;
72895;SDS011;61036;53.224;6.554;2022-08-18T07:47:46;7.93;;;3.40;;
72895;SDS011;61036;53.224;6.554;2022-08-18T07:50:41;11.00;;;3.97;;
72895;SDS011;61036;53.224;6.554;2022-08-18T07:56:17;9.37;;;3.07;;
72895;SDS011;61036;53.224;6.554;2022-08-18T08:07:13;7.03;;;2.87;;
72895;SDS011;61036;53.224;6.554;2022-08-18T08:12:43;5.60;;;2.13;;
72895;SDS011;61036;53.224;6.554;2022-08-18T08:18:24;5.37;;;2.27;;
72895;SDS011;61036;53.224;6.554;2022-08-18T08:20:58;6.70;;;2.27;;
72895;SDS011;61036;53.224;6.554;2022-08-18T08:26:26;4.83;;;2.33;;
72895;SDS011;61036;53.224;6.554;2022-08-18T08:32:02;4.83;;;2.20;;
72895;SDS011;61036;53.224;6.554;2022-08-18T08:34:40;6.40;;;2.47;;
72895;SDS011;61036;53.224;6.554;2022-08-18T08:37:20;7.00;;;2.63;;
72895;SDS011;61036;53.224;6.554;2022-08-18T08:39:56;5.90;;;2.20;;
72895;SDS011;61036;53.224;6.554;2022-08-18T08:42:32;4.30;;;1.97;;
72895;SDS011;61036;53.224;6.554;2022-08-18T08:45:54;4.97;;;2.10;;
72895;SDS011;61036;53.224;6.554;2022-08-18T08:50:34;5.27;;;2.10;;
72895;SDS011;61036;53.224;6.554;2022-08-18T08:53:24;5.27;;;2.63;;
72895;SDS011;61036;53.224;6.554;2022-08-18T08:55:58;5.73;;;2.57;;
72895;SDS011;61036;53.224;6.554;2022-08-18T08:58:36;5.90;;;2.50;;
72895;SDS011;61036;53.224;6.554;2022-08-18T09:01:04;5.17;;;2.50;;
72895;SDS011;61036;53.224;6.554;2022-08-18T09:03:45;5.47;;;2.20;;
72895;SDS011;61036;53.224;6.554;2022-08-18T09:08:53;4.47;;;2.00;;
72895;SDS011;61036;53.224;6.554;2022-08-18T09:20:31;5.97;;;2.50;;
72895;SDS011;61036;53.224;6.554;2022-08-18T09:23:10;5.10;;;2.17;;
72895;SDS011;61036;53.224;6.554;2022-08-18T09:41:52;4.83;;;2.00;;
72895;SDS011;61036;53.224;6.554;2022-08-18T09:47:06;7.67;;;2.43;;
72895;SDS011;61036;53.224;6.554;2022-08-18T09:49:48;4.33;;;1.90;;
72895;SDS011;61036;53.224;6.554;2022-08-18T09:54:50;4.70;;;2.10;;
72895;SDS011;61036;53.224;6.554;2022-08-18T10:11:07;6.70;;;1.97;;
72895;SDS011;61036;53.224;6.554;2022-08-18T10:16:47;5.60;;;2.03;;
72895;SDS011;61036;53.224;6.554;2022-08-18T10:19:34;3.50;;;1.80;;
72895;SDS011;61036;53.224;6.554;2022-08-18T10:22:41;5.67;;;2.30;;
72895;SDS011;61036;53.224;6.554;2022-08-18T10:25:10;4.67;;;1.83;;
72895;SDS011;61036;53.224;6.554;2022-08-18T10:33:14;4.67;;;1.77;;
72895;SDS011;61036;53.224;6.554;2022-08-18T10:37:00;5.13;;;2.17;;
72895;SDS011;61036;53.224;6.554;2022-08-18T10:39:14;5.63;;;2.20;;
72895;SDS011;61036;53.224;6.554;2022-08-18T10:41:53;4.53;;;2.07;;
72895;SDS011;61036;53.224;6.554;2022-08-18T10:44:41;5.20;;;2.20;;
72895;SDS011;61036;53.224;6.554;2022-08-18T10:47:18;5.07;;;2.13;;
72895;SDS011;61036;53.224;6.554;2022-08-18T10:49:50;5.67;;;2.40;;
72895;SDS011;61036;53.224;6.554;2022-08-18T10:52:30;6.63;;;2.60;;
72895;SDS011;61036;53.224;6.554;2022-08-18T10:55:23;7.97;;;2.40;;
72895;SDS011;61036;53.224;6.554;2022-08-18T11:04:24;6.50;;;2.47;;
72895;SDS011;61036;53.224;6.554;2022-08-18T11:07:03;5.07;;;2.50;;
72895;SDS011;61036;53.224;6.554;2022-08-18T11:09:34;5.47;;;2.27;;
72895;SDS011;61036;53.224;6.554;2022-08-18T11:12:03;5.63;;;2.30;;
72895;SDS011;61036;53.224;6.554;2022-08-18T11:19:43;4.50;;;2.47;;
72895;SDS011;61036;53.224;6.554;2022-08-18T11:22:48;5.00;;;2.33;;
72895;SDS011;61036;53.224;6.554;2022-08-18T11:25:18;5.57;;;2.33;;
72895;SDS011;61036;53.224;6.554;2022-08-18T11:27:51;4.33;;;2.53;;
72895;SDS011;61036;53.224;6.554;2022-08-18T11:30:20;4.30;;;2.23;;
72895;SDS011;61036;53.224;6.554;2022-08-18T11:32:50;6.37;;;2.50;;
72895;SDS011;61036;53.224;6.554;2022-08-18T11:35:28;5.63;;;2.53;;
72895;SDS011;61036;53.224;6.554;2022-08-18T11:37:59;6.13;;;2.77;;
72895;SDS011;61036;53.224;6.554;2022-08-18T11:40:40;5.13;;;2.57;;
72895;SDS011;61036;53.224;6.554;2022-08-18T11:53:23;4.93;;;1.93;;
72895;SDS011;61036;53.224;6.554;2022-08-18T11:59:06;6.10;;;2.23;;
72895;SDS011;61036;53.224;6.554;2022-08-18T12:01:47;4.63;;;1.90;;
72895;SDS011;61036;53.224;6.554;2022-08-18T12:04:25;5.13;;;2.30;;
72895;SDS011;61036;53.224;6.554;2022-08-18T12:07:05;4.90;;;2.07;;
72895;SDS011;61036;53.224;6.554;2022-08-18T12:09:40;5.80;;;2.50;;
72895;SDS011;61036;53.224;6.554;2022-08-18T12:12:15;4.40;;;2.27;;
72895;SDS011;61036;53.224;6.554;2022-08-18T12:14:50;4.00;;;1.93;;
72895;SDS011;61036;53.224;6.554;2022-08-18T12:17:18;3.80;;;2.10;;
72895;SDS011;61036;53.224;6.554;2022-08-18T12:19:44;4.37;;;2.27;;
72895;SDS011;61036;53.224;6.554;2022-08-18T12:22:17;3.60;;;2.10;;
72895;SDS011;61036;53.224;6.554;2022-08-18T12:24:49;4.50;;;1.90;;
72895;SDS011;61036;53.224;6.554;2022-08-18T12:27:17;4.90;;;2.90;;
72895;SDS011;61036;53.224;6.554;2022-08-18T12:29:51;3.90;;;1.93;;
72895;SDS011;61036;53.224;6.554;2022-08-18T12:32:19;4.23;;;2.27;;
72895;SDS011;61036;53.224;6.554;2022-08-18T12:34:46;3.73;;;1.90;;
72895;SDS011;61036;53.224;6.554;2022-08-18T12:37:14;4.47;;;2.20;;
72895;SDS011;61036;53.224;6.554;2022-08-18T12:39:42;5.10;;;2.47;;
72895;SDS011;61036;53.224;6.554;2022-08-18T12:42:07;4.43;;;2.27;;
72895;SDS011;61036;53.224;6.554;2022-08-18T12:44:33;4.00;;;1.80;;
72895;SDS011;61036;53.224;6.554;2022-08-18T12:47:02;5.50;;;2.13;;
72895;SDS011;61036;53.224;6.554;2022-08-18T12:49:47;4.20;;;2.00;;
72895;SDS011;61036;53.224;6.554;2022-08-18T12:52:13;3.77;;;2.10;;
72895;SDS011;61036;53.224;6.554;2022-08-18T12:54:40;4.20;;;2.30;;
72895;SDS011;61036;53.224;6.554;2022-08-18T12:57:11;4.33;;;2.03;;
72895;SDS011;61036;53.224;6.554;2022-08-18T12:59:46;4.90;;;2.60;;
72895;SDS011;61036;53.224;6.554;2022-08-18T13:02:11;3.97;;;2.00;;
72895;SDS011;61036;53.224;6.554;2022-08-18T13:04:37;5.33;;;1.90;;
72895;SDS011;61036;53.224;6.554;2022-08-18T13:07:06;3.60;;;2.00;;
72895;SDS011;61036;53.224;6.554;2022-08-18T13:09:32;3.47;;;2.00;;
72895;SDS011;61036;53.224;6.554;2022-08-18T13:12:01;2.67;;;1.80;;
72895;SDS011;61036;53.224;6.554;2022-08-18T13:14:27;3.83;;;2.13;;
72895;SDS011;61036;53.224;6.554;2022-08-18T13:16:53;4.33;;;1.80;;
72895;SDS011;61036;53.224;6.554;2022-08-18T13:19:19;3.63;;;2.37;;
72895;SDS011;61036;53.224;6.554;2022-08-18T13:21:44;3.13;;;1.90;;
72895;SDS011;61036;53.224;6.554;2022-08-18T13:24:10;3.30;;;2.13;;
72895;SDS011;61036;53.224;6.554;2022-08-18T13:26:38;3.73;;;1.90;;
72895;SDS011;61036;53.224;6.554;2022-08-18T13:29:06;3.90;;;2.10;;
72895;SDS011;61036;53.224;6.554;2022-08-18T13:31:32;5.23;;;2.33;;
72895;SDS011;61036;53.224;6.554;2022-08-18T13:33:58;5.43;;;2.70;;
72895;SDS011;61036;53.224;6.554;2022-08-18T13:36:26;3.80;;;2.20;;
72895;SDS011;61036;53.224;6.554;2022-08-18T13:39:18;4.47;;;2.10;;
72895;SDS011;61036;53.224;6.554;2022-08-18T13:41:46;3.93;;;2.20;;
72895;SDS011;61036;53.224;6.554;2022-08-18T13:44:15;4.47;;;2.67;;
72895;SDS011;61036;53.224;6.554;2022-08-18T13:46:43;5.43;;;2.50;;
72895;SDS011;61036;53.224;6.554;2022-08-18T13:49:10;4.23;;;2.30;;
72895;SDS011;61036;53.224;6.554;2022-08-18T13:51:46;5.83;;;2.43;;
72895;SDS011;61036;53.224;6.554;2022-08-18T13:54:19;5.90;;;2.27;;
72895;SDS011;61036;53.224;6.554;2022-08-18T13:56:48;3.63;;;2.00;;
72895;SDS011;61036;53.224;6.554;2022-08-18T13:59:14;3.03;;;2.10;;
72895;SDS011;61036;53.224;6.554;2022-08-18T14:01:41;4.67;;;2.30;;
72895;SDS011;61036;53.224;6.554;2022-08-18T14:04:07;4.70;;;2.40;;
72895;SDS011;61036;53.224;6.554;2022-08-18T14:06:37;3.37;;;2.27;;
72895;SDS011;61036;53.224;6.554;2022-08-18T14:09:06;4.37;;;2.50;;
72895;SDS011;61036;53.224;6.554;2022-08-18T14:11:33;4.17;;;2.30;;
72895;SDS011;61036;53.224;6.554;2022-08-18T14:14:01;5.23;;;2.13;;
72895;SDS011;61036;53.224;6.554;2022-08-18T14:16:28;4.63;;;2.10;;
72895;SDS011;61036;53.224;6.554;2022-08-18T14:18:55;3.80;;;2.33;;
72895;SDS011;61036;53.224;6.554;2022-08-18T14:21:41;6.27;;;2.40;;
72895;SDS011;61036;53.224;6.554;2022-08-18T14:24:28;3.83;;;2.03;;
72895;SDS011;61036;53.224;6.554;2022-08-18T14:27:13;4.07;;;2.20;;
72895;SDS011;61036;53.224;6.554;2022-08-18T14:29:39;4.73;;;2.57;;
72895;SDS011;61036;53.224;6.554;2022-08-18T14:32:07;3.70;;;2.20;;
72895;SDS011;61036;53.224;6.554;2022-08-18T14:34:34;4.67;;;2.20;;
72895;SDS011;61036;53.224;6.554;2022-08-18T14:37:03;3.77;;;2.00;;
72895;SDS011;61036;53.224;6.554;2022-08-18T14:39:29;4.33;;;2.30;;
72895;SDS011;61036;53.224;6.554;2022-08-18T14:41:55;3.87;;;1.87;;
72895;SDS011;61036;53.224;6.554;2022-08-18T14:44:22;4.67;;;2.37;;
72895;SDS011;61036;53.224;6.554;2022-08-18T14:46:49;3.93;;;2.20;;
72895;SDS011;61036;53.224;6.554;2022-08-18T14:49:15;7.47;;;3.17;;
72895;SDS011;61036;53.224;6.554;2022-08-18T14:51:41;5.13;;;2.50;;
72895;SDS011;61036;53.224;6.554;2022-08-18T14:54:08;5.30;;;2.23;;
72895;SDS011;61036;53.224;6.554;2022-08-18T14:56:34;3.83;;;2.47;;
72895;SDS011;61036;53.224;6.554;2022-08-18T14:59:00;4.73;;;2.50;;
72895;SDS011;61036;53.224;6.554;2022-08-18T15:01:29;5.23;;;2.43;;
72895;SDS011;61036;53.224;6.554;2022-08-18T15:03:56;5.53;;;2.67;;
72895;SDS011;61036;53.224;6.554;2022-08-18T15:06:25;4.87;;;2.33;;
72895;SDS011;61036;53.224;6.554;2022-08-18T15:08:51;4.20;;;2.43;;
72895;SDS011;61036;53.224;6.554;2022-08-18T15:11:18;4.57;;;2.60;;
72895;SDS011;61036;53.224;6.554;2022-08-18T15:13:44;4.27;;;2.30;;
72895;SDS011;61036;53.224;6.554;2022-08-18T15:16:11;4.90;;;2.57;;
72895;SDS011;61036;53.224;6.554;2022-08-18T15:18:39;5.23;;;2.83;;
72895;SDS011;61036;53.224;6.554;2022-08-18T15:21:06;4.23;;;2.50;;
72895;SDS011;61036;53.224;6.554;2022-08-18T15:23:53;4.60;;;2.50;;
72895;SDS011;61036;53.224;6.554;2022-08-18T15:26:38;4.73;;;2.37;;
72895;SDS011;61036;53.224;6.554;2022-08-18T15:29:04;6.23;;;2.67;;
72895;SDS011;61036;53.224;6.554;2022-08-18T15:31:32;4.50;;;2.40;;
72895;SDS011;61036;53.224;6.554;2022-08-18T15:34:03;4.57;;;2.37;;
72895;SDS011;61036;53.224;6.554;2022-08-18T15:36:31;4.27;;;2.47;;
72895;SDS011;61036;53.224;6.554;2022-08-18T15:39:00;6.43;;;2.50;;
72895;SDS011;61036;53.224;6.554;2022-08-18T15:41:31;4.80;;;2.40;;
72895;SDS011;61036;53.224;6.554;2022-08-18T15:44:05;4.43;;;2.00;;
72895;SDS011;61036;53.224;6.554;2022-08-18T15:46:32;4.83;;;2.30;;
72895;SDS011;61036;53.224;6.554;2022-08-18T15:49:01;4.10;;;2.07;;
72895;SDS011;61036;53.224;6.554;2022-08-18T15:51:30;4.23;;;2.37;;
72895;SDS011;61036;53.224;6.554;2022-08-18T15:53:56;4.80;;;2.50;;
72895;SDS011;61036;53.224;6.554;2022-08-18T15:56:23;5.30;;;2.50;;
72895;SDS011;61036;53.224;6.554;2022-08-18T15:58:49;4.07;;;2.40;;
72895;SDS011;61036;53.224;6.554;2022-08-18T16:01:16;5.00;;;2.20;;
72895;SDS011;61036;53.224;6.554;2022-08-18T16:03:44;5.13;;;2.70;;
72895;SDS011;61036;53.224;6.554;2022-08-18T16:06:17;5.83;;;3.20;;
72895;SDS011;61036;53.224;6.554;2022-08-18T16:08:49;3.80;;;2.40;;
72895;SDS011;61036;53.224;6.554;2022-08-18T16:11:16;4.10;;;2.50;;
72895;SDS011;61036;53.224;6.554;2022-08-18T16:13:46;3.67;;;2.37;;
72895;SDS011;61036;53.224;6.554;2022-08-18T16:16:14;4.10;;;2.30;;
72895;SDS011;61036;53.224;6.554;2022-08-18T16:18:42;5.23;;;2.80;;
72895;SDS011;61036;53.224;6.554;2022-08-18T16:21:12;5.87;;;3.60;;
72895;SDS011;61036;53.224;6.554;2022-08-18T16:23:40;5.97;;;2.53;;
72895;SDS011;61036;53.224;6.554;2022-08-18T16:26:08;4.03;;;2.30;;
72895;SDS011;61036;53.224;6.554;2022-08-18T16:28:38;4.50;;;2.50;;
72895;SDS011;61036;53.224;6.554;2022-08-18T16:31:05;5.57;;;2.50;;
72895;SDS011;61036;53.224;6.554;2022-08-18T16:33:32;4.10;;;2.30;;
72895;SDS011;61036;53.224;6.554;2022-08-18T16:36:04;5.23;;;2.27;;
72895;SDS011;61036;53.224;6.554;2022-08-18T16:38:32;7.57;;;2.53;;
72895;SDS011;61036;53.224;6.554;2022-08-18T16:41:07;6.50;;;2.83;;
72895;SDS011;61036;53.224;6.554;2022-08-18T16:43:35;6.03;;;2.40;;
72895;SDS011;61036;53.224;6.554;2022-08-18T16:46:01;5.23;;;2.40;;
72895;SDS011;61036;53.224;6.554;2022-08-18T16:48:28;4.63;;;2.30;;
72895;SDS011;61036;53.224;6.554;2022-08-18T16:50:55;4.20;;;2.37;;
72895;SDS011;61036;53.224;6.554;2022-08-18T16:53:21;9.07;;;3.20;;
72895;SDS011;61036;53.224;6.554;2022-08-18T16:55:47;4.13;;;2.40;;
72895;SDS011;61036;53.224;6.554;2022-08-18T16:58:13;4.67;;;2.33;;
72895;SDS011;61036;53.224;6.554;2022-08-18T17:00:58;5.67;;;2.30;;
72895;SDS011;61036;53.224;6.554;2022-08-18T17:03:46;4.80;;;2.40;;
72895;SDS011;61036;53.224;6.554;2022-08-18T17:06:30;5.20;;;2.33;;
72895;SDS011;61036;53.224;6.554;2022-08-18T17:08:56;4.23;;;2.20;;
72895;SDS011;61036;53.224;6.554;2022-08-18T17:11:23;5.17;;;2.63;;
72895;SDS011;61036;53.224;6.554;2022-08-18T17:13:54;6.67;;;2.77;;
72895;SDS011;61036;53.224;6.554;2022-08-18T17:16:22;3.77;;;2.07;;
72895;SDS011;61036;53.224;6.554;2022-08-18T17:18:53;4.50;;;2.40;;
72895;SDS011;61036;53.224;6.554;2022-08-18T17:21:21;4.87;;;2.33;;
72895;SDS011;61036;53.224;6.554;2022-08-18T17:23:48;4.50;;;2.03;;
72895;SDS011;61036;53.224;6.554;2022-08-18T17:26:34;6.37;;;2.63;;
72895;SDS011;61036;53.224;6.554;2022-08-18T17:29:17;4.80;;;2.43;;
72895;SDS011;61036;53.224;6.554;2022-08-18T17:31:56;7.17;;;3.30;;
72895;SDS011;61036;53.224;6.554;2022-08-18T17:34:37;5.50;;;2.57;;